Time;durP1;ratioP1;P1;durP2;ratioP2;P2;SDS_P1;SDS_P2;PMS_P1;PMS_P2;Temp;Humidity;BMP_temperature;BMP_pressure;BME280_temperature;BME280_humidity;BME280_pressure;Samples;Min_cycle;Max_cycle;Signal;HPM_P1;HPM_P2
2020/12/27 00:02:20;;;;;;;11.77;1.48;;;;;;;8.65;89.95;98037.44;5078152;28;20017;-82
2020/12/27 00:04:48;;;;;;;11.32;1.58;;;;;;;8.64;90.72;97959.53;5094459;28;20139;-80
2020/12/27 00:07:26;;;;;;;;;;;;;;;;;;;;;
2020/12/27 00:12:18;;;;;;;;;;;;;;;9.70;85.93;97966.09;5118117;27;20131;-74
2020/12/27 00:14:53;;;;;;;25.77;4.13;;;;;;;9.88;83.86;97947.78;5107390;28;19993;-80
2020/12/27 00:17:43;;;;;;;29.08;2.75;;;;;;;9.32;87.28;97934.75;5077767;28;20125;-77
2020/12/27 00:20:09;;;;;;;19.65;2.72;;;;;;;9.16;87.38;97958.16;5072631;28;20032;-77
2020/12/27 00:22:34;;;;;;;13.27;2.28;;;;;;;9.20;87.32;97949.00;5069978;28;20557;-77
2020/12/27 00:25:00;;;;;;;16.75;1.10;;;;;;;9.20;87.37;97878.13;5068473;28;20077;-75
2020/12/27 00:27:25;;;;;;;21.80;1.88;;;;;;;9.23;86.48;97910.19;5057832;28;20460;-77
2020/12/27 00:29:51;;;;;;;28.52;4.25;;;;;;;9.26;86.77;97895.91;5069043;28;20052;-79
2020/12/27 00:32:17;;;;;;;29.73;2.70;;;;;;;9.15;87.26;97897.34;5066273;28;20162;-78
2020/12/27 00:34:42;;;;;;;34.75;3.28;;;;;;;9.18;86.84;97885.78;5074631;28;20032;-78
2020/12/27 00:37:07;;;;;;;19.77;3.95;;;;;;;9.18;86.63;97902.16;5067174;28;20383;-76
2020/12/27 00:39:33;;;;;;;13.98;2.35;;;;;;;9.14;86.64;97846.69;5060394;28;20120;-77
2020/12/27 00:41:59;;;;;;;31.73;4.30;;;;;;;9.14;86.43;97835.78;5064073;28;20111;-77
2020/12/27 00:44:25;;;;;;;25.95;3.58;;;;;;;9.04;87.47;97782.34;5062205;28;20039;-77
2020/12/27 00:46:50;;;;;;;28.52;3.60;;;;;;;8.96;87.29;97806.88;5067879;28;20028;-77
2020/12/27 00:49:20;;;;;;;22.58;3.08;;;;;;;8.87;88.40;97826.75;5066988;28;20036;-77
2020/12/27 00:51:45;;;;;;;43.53;4.60;;;;;;;8.73;88.86;97772.41;5059630;28;20021;-76
2020/12/27 00:54:12;;;;;;;30.42;4.53;;;;;;;8.72;88.55;97824.47;5030204;28;20048;-78
2020/12/27 00:56:37;;;;;;;22.70;2.67;;;;;;;8.68;89.48;97760.84;5065782;28;20025;-78
2020/12/27 00:59:03;;;;;;;34.47;3.97;;;;;;;8.68;89.80;97752.69;5063525;28;20530;-79
2020/12/27 01:01:29;;;;;;;20.40;3.80;;;;;;;8.74;90.15;97762.28;5066726;28;20032;-78
2020/12/27 01:03:55;;;;;;;20.23;2.22;;;;;;;8.77;89.56;97750.75;5060865;28;20483;-80
2020/12/27 01:06:27;;;;;;;20.10;2.40;;;;;;;8.82;89.35;97715.19;5063539;28;20487;-79
2020/12/27 01:08:54;;;;;;;19.05;2.67;;;;;;;8.85;89.71;97725.44;5061527;28;20050;-80
2020/12/27 01:11:19;;;;;;;20.60;1.67;;;;;;;8.85;90.34;97698.19;5066325;28;20029;-79
2020/12/27 01:13:44;;;;;;;10.98;1.50;;;;;;;8.82;90.07;97674.31;5059330;28;20078;-78
2020/12/27 01:16:18;;;;;;;11.57;2.15;;;;;;;8.88;89.71;97659.38;5069314;28;20067;-80
2020/12/27 01:18:44;;;;;;;21.80;2.30;;;;;;;8.86;90.19;97704.44;5057231;28;20480;-80
2020/12/27 01:21:10;;;;;;;13.63;1.65;;;;;;;8.82;89.75;97649.78;5061497;28;20040;-80
2020/12/27 01:23:35;;;;;;;9.40;1.85;;;;;;;8.80;90.09;97673.03;5025529;28;20036;-79
2020/12/27 01:26:01;;;;;;;17.45;1.70;;;;;;;8.70;89.76;97600.56;5047746;28;20058;-78
2020/12/27 01:28:26;;;;;;;12.68;1.85;;;;;;;8.58;90.03;97608.63;5056324;28;20064;-78
2020/12/27 01:30:52;;;;;;;9.90;1.33;;;;;;;8.52;89.48;97619.66;5024493;28;20040;-79
2020/12/27 01:33:17;;;;;;;4.68;0.80;;;;;;;8.44;90.12;97604.13;5045564;28;20079;-80
2020/12/27 01:35:46;;;;;;;4.03;0.95;;;;;;;8.42;90.16;97590.00;5051595;28;20037;-79
2020/12/27 01:38:13;;;;;;;3.00;1.15;;;;;;;8.41;90.89;97546.75;5038206;28;20044;-81
2020/12/27 01:40:39;;;;;;;9.43;1.70;;;;;;;8.44;90.76;97606.00;5055661;28;20107;-82
2020/12/27 01:43:07;;;;;;;10.38;1.67;;;;;;;8.44;91.03;97525.16;5062359;28;20029;-80
2020/12/27 01:45:33;;;;;;;7.53;0.88;;;;;;;8.50;90.20;97540.22;5040696;28;20033;-80
2020/12/27 01:47:59;;;;;;;20.30;1.17;;;;;;;8.53;90.79;97522.44;5062291;28;20078;-79
2020/12/27 01:50:25;;;;;;;3.63;0.77;;;;;;;8.55;90.79;97520.97;5054696;28;20029;-78
2020/12/27 01:52:50;;;;;;;18.67;2.80;;;;;;;8.52;90.57;97483.47;5039913;28;20059;-79
2020/12/27 01:55:16;;;;;;;23.00;3.85;;;;;;;8.58;91.25;97499.66;5053721;28;20029;-81
2020/12/27 01:58:01;;;;;;;9.95;1.65;;;;;;;8.59;90.14;97450.31;5059100;28;20052;-80
2020/12/27 02:00:28;;;;;;;20.30;1.75;;;;;;;8.56;91.17;97570.81;5046626;28;20021;-80
2020/12/27 02:02:54;;;;;;;9.73;0.95;;;;;;;8.51;90.81;97438.31;5021802;28;20040;-80
2020/12/27 02:05:19;;;;;;;8.80;1.98;;;;;;;8.54;90.31;97431.41;5058415;28;20025;-78
2020/12/27 02:07:45;;;;;;;9.35;1.45;;;;;;;8.52;90.79;97430.94;5052584;28;20044;-80
2020/12/27 02:10:11;;;;;;;6.53;1.42;;;;;;;8.53;91.21;97400.66;5053705;28;20029;-79
2020/12/27 02:12:37;;;;;;;18.10;1.60;;;;;;;8.55;91.46;97378.53;5034564;28;20033;-80
2020/12/27 02:17:18;;;;;;;;;;;;;;;9.13;90.66;97353.56;5151912;27;20746;-69
2020/12/27 02:19:44;;;;;;;2.43;0.50;;;;;;;9.95;93.01;97359.25;5133930;27;19962;-67
2020/12/27 02:22:12;;;;;;;0.68;0.45;;;;;;;10.91;93.62;97323.75;5143452;27;20034;-68
2020/12/27 02:24:37;;;;;;;0.00;0.00;;;;;;;11.74;93.52;97326.91;5134090;27;20114;-68
2020/12/27 02:27:04;;;;;;;0.00;0.00;;;;;;;12.37;92.92;97309.78;5150288;27;20149;-68
2020/12/27 02:29:32;;;;;;;0.00;0.00;;;;;;;12.88;92.84;97289.03;5149598;27;20707;-67
2020/12/27 02:31:58;;;;;;;0.00;0.00;;;;;;;13.31;91.97;97280.94;5157393;27;20026;-67
2020/12/27 02:34:23;;;;;;;0.00;0.00;;;;;;;13.62;92.01;97282.75;5157969;27;20034;-68
2020/12/27 02:36:51;;;;;;;0.00;0.00;;;;;;;13.87;91.68;97255.75;5138046;27;20046;-68
2020/12/27 02:39:19;;;;;;;0.00;0.00;;;;;;;14.11;91.69;97284.81;5150550;27;20038;-67
2020/12/27 02:41:48;;;;;;;0.00;0.00;;;;;;;14.30;91.07;97239.19;5158663;27;20424;-68
2020/12/27 02:44:14;;;;;;;0.00;0.00;;;;;;;14.43;91.01;97218.59;5151832;27;20034;-66
2020/12/27 02:46:40;;;;;;;0.00;0.00;;;;;;;14.56;90.82;97213.69;5154403;27;20023;-68
2020/12/27 02:49:06;;;;;;;0.00;0.00;;;;;;;14.68;90.68;97220.94;5150535;27;20026;-69
2020/12/27 02:51:31;;;;;;;0.10;0.00;;;;;;;14.77;91.29;97193.16;5143130;27;20071;-68
2020/12/27 02:53:58;;;;;;;0.00;0.00;;;;;;;14.84;90.90;97177.53;5138588;27;20023;-68
2020/12/27 02:56:28;;;;;;;0.00;0.00;;;;;;;14.94;90.63;97178.06;5154589;27;20053;-67
2020/12/27 02:59:00;;;;;;;0.00;0.00;;;;;;;14.99;90.42;97169.47;5146368;27;20110;-68
2020/12/27 03:01:26;;;;;;;0.00;0.00;;;;;;;15.05;90.84;97159.72;5154031;27;20041;-67
2020/12/27 03:03:52;;;;;;;0.00;0.00;;;;;;;15.08;90.51;97125.16;5131181;27;20030;-67
2020/12/27 03:06:21;;;;;;;0.00;0.00;;;;;;;15.15;90.06;97112.25;5157944;27;20479;-68
2020/12/27 03:09:05;;;;;;;0.00;0.00;;;;;;;15.20;90.31;97108.38;5149073;27;20023;-67
2020/12/27 03:11:30;;;;;;;0.00;0.00;;;;;;;15.25;89.94;97099.78;5150205;27;20152;-68
2020/12/27 03:13:55;;;;;;;0.00;0.00;;;;;;;15.29;90.05;97077.81;5135623;27;21536;-67
2020/12/27 03:16:21;;;;;;;0.00;0.00;;;;;;;15.34;90.41;97071.94;5150400;27;20039;-66
2020/12/27 03:18:47;;;;;;;0.00;0.00;;;;;;;15.37;89.97;97090.44;5161281;27;20035;-67
2020/12/27 03:21:12;;;;;;;0.00;0.00;;;;;;;15.41;90.14;97052.72;5145109;27;20422;-67
2020/12/27 03:23:38;;;;;;;0.00;0.00;;;;;;;15.46;89.74;97065.34;5148530;27;20137;-66
2020/12/27 03:26:03;;;;;;;0.00;0.00;;;;;;;15.49;89.73;97037.88;5147821;27;20035;-66
2020/12/27 03:28:29;;;;;;;0.00;0.00;;;;;;;15.52;90.21;97017.81;5142645;27;20030;-67
2020/12/27 03:30:55;;;;;;;0.00;0.00;;;;;;;15.54;89.74;97018.22;5137476;27;20405;-68
2020/12/27 03:33:20;;;;;;;0.00;0.00;;;;;;;15.59;89.57;97014.31;5141541;27;20045;-70
2020/12/27 03:35:45;;;;;;;0.03;0.00;;;;;;;15.62;90.02;96999.00;5146656;27;20025;-69
2020/12/27 03:38:11;;;;;;;0.00;0.00;;;;;;;15.65;90.07;96995.47;5142160;27;20480;-69
2020/12/27 03:40:36;;;;;;;3.40;0.10;;;;;;;15.69;89.41;96990.78;5109402;27;20114;-69
2020/12/27 03:43:02;;;;;;;0.00;0.00;;;;;;;15.70;89.72;96976.63;5140814;27;20461;-69
2020/12/27 03:45:27;;;;;;;0.00;0.00;;;;;;;15.75;90.03;96969.97;5142690;27;20008;-71
2020/12/27 03:47:54;;;;;;;0.00;0.00;;;;;;;15.78;89.57;96955.44;5141326;27;20372;-68
2020/12/27 03:50:24;;;;;;;0.00;0.00;;;;;;;15.80;89.59;96955.88;5136597;27;20030;-68
2020/12/27 03:52:49;;;;;;;0.00;0.00;;;;;;;15.81;89.58;96932.66;5116027;27;20418;-68
2020/12/27 03:55:15;;;;;;;0.00;0.00;;;;;;;15.85;89.59;96949.19;5143903;27;20023;-68
2020/12/27 03:57:40;;;;;;;0.00;0.00;;;;;;;15.85;89.70;96927.16;5122968;27;20117;-69
2020/12/27 04:00:06;;;;;;;0.00;0.00;;;;;;;15.90;89.68;96917.72;5108275;27;20374;-68
2020/12/27 04:02:31;;;;;;;0.00;0.00;;;;;;;15.94;89.24;96910.28;5137395;27;20038;-69
2020/12/27 04:04:56;;;;;;;0.00;0.00;;;;;;;15.96;89.72;96905.16;5121383;27;20494;-70
2020/12/27 04:07:23;;;;;;;0.50;0.00;;;;;;;15.98;89.57;96891.78;5131139;27;20034;-70
2020/12/27 04:09:48;;;;;;;0.00;0.00;;;;;;;15.99;89.39;96890.59;5133573;27;20033;-69
2020/12/27 04:12:14;;;;;;;0.20;0.00;;;;;;;16.05;89.76;96869.78;5133750;27;20019;-70
2020/12/27 04:14:40;;;;;;;0.45;0.00;;;;;;;16.07;89.41;96867.41;5136077;27;20647;-69
2020/12/27 04:17:06;;;;;;;0.00;0.00;;;;;;;16.10;89.29;96857.56;5133161;27;20107;-69
2020/12/27 04:19:31;;;;;;;0.00;0.00;;;;;;;16.10;89.52;96854.81;5145995;27;20035;-69
2020/12/27 04:21:56;;;;;;;0.10;0.00;;;;;;;16.15;89.20;96852.47;5115307;27;20062;-70
2020/12/27 04:24:22;;;;;;;0.00;0.00;;;;;;;16.18;89.45;96846.19;5128681;27;20019;-70
2020/12/27 04:26:48;;;;;;;0.00;0.00;;;;;;;16.20;89.21;96841.06;5136349;27;20024;-71
2020/12/27 04:29:13;;;;;;;0.00;0.00;;;;;;;16.22;89.19;96827.69;5129780;27;20087;-68
2020/12/27 04:31:38;;;;;;;0.00;0.00;;;;;;;16.26;89.15;96813.91;5138393;27;20022;-69
2020/12/27 04:34:04;;;;;;;0.00;0.00;;;;;;;16.28;89.31;96819.81;5140665;27;20094;-69
2020/12/27 04:36:29;;;;;;;0.00;0.00;;;;;;;16.29;88.91;96798.53;5110433;27;20046;-68
2020/12/27 04:38:55;;;;;;;0.00;0.00;;;;;;;16.32;89.11;96795.00;5119504;27;20046;-68
2020/12/27 04:41:20;;;;;;;0.00;0.00;;;;;;;16.33;89.26;96780.81;5130448;27;20039;-67
2020/12/27 04:43:47;;;;;;;0.00;0.00;;;;;;;16.35;89.33;96758.38;5119468;27;20035;-68
2020/12/27 04:46:14;;;;;;;0.00;0.00;;;;;;;16.35;88.90;96761.13;5144552;27;20030;-68
2020/12/27 04:48:44;;;;;;;0.00;0.00;;;;;;;16.37;89.24;96758.78;5134811;27;20030;-68
2020/12/27 04:51:11;;;;;;;0.00;0.00;;;;;;;16.37;88.68;96772.56;5123263;27;20480;-68
2020/12/27 04:53:38;;;;;;;0.00;0.00;;;;;;;16.39;89.19;96748.13;5105651;27;20038;-69
2020/12/27 04:56:05;;;;;;;0.00;0.00;;;;;;;16.39;88.95;96764.69;5116276;27;20095;-69
2020/12/27 04:58:32;;;;;;;0.10;0.00;;;;;;;16.42;88.95;96766.66;5104605;27;20023;-69
2020/12/27 05:00:59;;;;;;;0.00;0.00;;;;;;;16.44;88.94;96769.00;5123589;27;20438;-69
2020/12/27 05:03:25;;;;;;;1.35;0.00;;;;;;;16.45;88.81;96774.13;5134357;27;20030;-69
2020/12/27 05:05:51;;;;;;;0.00;0.00;;;;;;;16.46;88.85;96778.47;5134887;27;20030;-68
2020/12/27 05:08:17;;;;;;;0.00;0.00;;;;;;;16.47;88.96;96765.47;5125179;27;20079;-69
2020/12/27 05:10:44;;;;;;;0.00;0.00;;;;;;;16.47;89.08;96769.03;5134018;27;20042;-68
2020/12/27 05:13:15;;;;;;;0.00;0.00;;;;;;;16.50;88.95;96776.50;5137091;27;20054;-69
2020/12/27 05:15:43;;;;;;;0.00;0.00;;;;;;;16.50;89.20;96770.19;5143938;27;20055;-70
2020/12/27 05:18:09;;;;;;;0.00;0.00;;;;;;;16.51;88.74;96766.25;5132466;27;20068;-70
2020/12/27 05:20:36;;;;;;;0.00;0.00;;;;;;;16.52;89.00;96743.78;5111674;27;20102;-69
2020/12/27 05:23:04;;;;;;;0.00;0.00;;;;;;;16.52;88.74;96754.81;5131193;27;20076;-69
2020/12/27 05:25:30;;;;;;;0.00;0.00;;;;;;;16.54;88.86;96746.16;5144821;27;20035;-69
2020/12/27 05:28:01;;;;;;;0.00;0.00;;;;;;;16.55;88.82;96754.03;5130062;27;20019;-69
2020/12/27 05:30:27;;;;;;;0.00;0.00;;;;;;;16.55;88.94;96759.53;5137136;27;20473;-69
2020/12/27 05:32:54;;;;;;;0.00;0.00;;;;;;;16.57;89.07;96757.19;5130541;27;20055;-70
2020/12/27 05:35:20;;;;;;;0.00;0.00;;;;;;;16.56;88.80;96758.38;5129964;27;20035;-70
2020/12/27 05:37:49;;;;;;;0.00;0.00;;;;;;;16.58;88.70;96753.22;5140430;27;20034;-70
2020/12/27 05:40:15;;;;;;;0.00;0.00;;;;;;;16.56;88.74;96743.81;5124389;27;20373;-68
2020/12/27 05:42:41;;;;;;;0.00;0.00;;;;;;;16.57;89.03;96743.41;5143396;27;20027;-68
2020/12/27 05:45:12;;;;;;;0.00;0.00;;;;;;;16.61;89.05;96737.88;5132759;27;20050;-68
2020/12/27 05:47:40;;;;;;;0.00;0.00;;;;;;;16.57;89.07;96724.09;5112164;27;20050;-69
2020/12/27 05:50:07;;;;;;;0.10;0.00;;;;;;;16.57;88.85;96702.03;5131399;27;20529;-68
2020/12/27 05:52:44;;;;;;;0.00;0.00;;;;;;;16.61;88.82;96690.22;5125428;27;20445;-68
2020/12/27 05:55:17;;;;;;;0.00;0.00;;;;;;;16.61;89.00;96681.94;5140567;27;20026;-68
2020/12/27 05:57:47;;;;;;;0.00;0.00;;;;;;;16.60;88.67;96672.09;5136169;27;20053;-68
2020/12/27 06:00:17;;;;;;;0.00;0.00;;;;;;;16.61;88.89;96651.59;5124157;27;20449;-68
2020/12/27 06:02:42;;;;;;;0.00;0.00;;;;;;;16.61;88.83;96651.59;5140450;27;20018;-68
2020/12/27 06:05:14;;;;;;;0.00;0.00;;;;;;;16.61;88.99;96654.34;5132363;27;20033;-69
2020/12/27 06:07:46;;;;;;;0.00;0.00;;;;;;;16.59;88.97;96640.97;5128726;27;20030;-68
2020/12/27 06:10:21;;;;;;;0.00;0.00;;;;;;;16.62;88.68;96631.09;5136054;27;20023;-69
2020/12/27 06:12:46;;;;;;;;;;;;;;;16.65;88.59;96642.13;5132010;27;20049;-68
2020/12/27 06:15:41;;;;;;;;;;;;;;;16.64;88.75;96629.50;5141521;27;20360;-68
2020/12/27 06:18:11;;;;;;;0.00;0.00;;;;;;;16.57;88.67;96630.34;5073427;28;20430;-68
2020/12/27 06:20:42;;;;;;;0.00;0.00;;;;;;;16.56;88.68;96623.25;5087587;28;20023;-68
2020/12/27 06:23:08;;;;;;;0.00;0.00;;;;;;;16.55;88.75;96626.41;5082354;28;20028;-67
2020/12/27 06:25:34;;;;;;;0.00;0.00;;;;;;;16.57;88.59;96630.34;5087911;28;20035;-68
2020/12/27 06:28:01;;;;;;;0.00;0.00;;;;;;;16.56;88.78;96625.22;5071505;28;20020;-68
2020/12/27 06:30:31;;;;;;;0.08;0.00;;;;;;;16.58;88.85;96609.81;5098707;28;20043;-68
2020/12/27 06:33:20;;;;;;;0.00;0.00;;;;;;;16.61;88.65;96615.75;5088177;28;20216;-68
2020/12/27 06:35:46;;;;;;;0.00;0.00;;;;;;;16.57;88.54;96608.28;5086826;28;20063;-68
2020/12/27 06:38:19;;;;;;;0.00;0.00;;;;;;;16.58;89.08;96606.28;5088623;28;20058;-68
2020/12/27 06:40:46;;;;;;;0.00;0.00;;;;;;;16.56;88.58;96606.69;5086165;28;20474;-66
2020/12/27 06:43:22;;;;;;;0.00;0.00;;;;;;;16.58;88.44;96604.31;5094109;28;20043;-68
2020/12/27 06:45:50;;;;;;;0.00;0.00;;;;;;;16.56;88.57;96584.63;5080534;28;20055;-67
2020/12/27 06:48:35;;;;;;;0.00;0.00;;;;;;;16.60;88.68;96573.56;5107194;28;20362;-68
2020/12/27 06:51:01;;;;;;;0.00;0.00;;;;;;;16.56;88.47;96575.59;5076414;28;20164;-68
2020/12/27 06:53:45;;;;;;;0.00;0.00;;;;;;;16.60;88.77;96572.78;5103386;28;21884;-67
2020/12/27 06:56:13;;;;;;;0.00;0.00;;;;;;;16.57;88.76;96575.19;5093717;28;20473;-69
2020/12/27 06:58:39;;;;;;;0.03;0.00;;;;;;;16.57;88.67;96586.22;5101080;28;20039;-68
2020/12/27 07:01:14;;;;;;;0.00;0.00;;;;;;;16.62;88.97;96592.47;5097259;28;20070;-68
2020/12/27 07:03:41;;;;;;;0.00;0.00;;;;;;;16.62;88.62;96581.44;5097554;28;20454;-68
2020/12/27 07:06:22;;;;;;;0.00;0.00;;;;;;;16.65;89.04;96573.16;5104251;28;20027;-67
2020/12/27 07:08:49;;;;;;;0.00;0.00;;;;;;;16.64;88.81;96573.56;5095556;28;20443;-67
2020/12/27 07:11:21;;;;;;;0.00;0.00;;;;;;;16.69;88.79;96581.41;5082346;28;20070;-68
2020/12/27 07:13:52;;;;;;;0.00;0.00;;;;;;;16.70;89.09;96588.50;5099787;28;20039;-67
2020/12/27 07:16:17;;;;;;;0.00;0.00;;;;;;;16.73;88.84;96587.72;5104560;27;20110;-68
2020/12/27 07:18:48;;;;;;;2.97;0.00;;;;;;;16.76;88.94;96570.34;5114638;27;20119;-72
2020/12/27 07:21:19;;;;;;;0.08;0.00;;;;;;;16.79;88.83;96569.53;5104960;27;20035;-67
2020/12/27 07:24:11;;;;;;;0.00;0.00;;;;;;;16.87;88.93;96554.56;5109912;27;20030;-69
2020/12/27 07:26:44;;;;;;;0.00;0.00;;;;;;;16.88;89.13;96552.59;5124121;27;20098;-68
2020/12/27 07:29:18;;;;;;;0.00;0.00;;;;;;;16.92;88.82;96545.88;5119873;27;20480;-71
2020/12/27 07:31:45;;;;;;;0.03;0.00;;;;;;;16.95;89.09;96549.00;5110839;27;20069;-69
2020/12/27 07:34:17;;;;;;;0.05;0.00;;;;;;;16.99;89.14;96558.84;5109463;27;20170;-69
2020/12/27 07:36:42;;;;;;;0.00;0.00;;;;;;;17.00;89.22;96551.38;5115057;27;20020;-68
2020/12/27 07:39:10;;;;;;;0.00;0.00;;;;;;;17.05;88.80;96570.25;5113300;27;20489;-69
2020/12/27 07:41:40;;;;;;;0.03;0.00;;;;;;;17.07;89.11;96567.88;5102342;27;20423;-68
2020/12/27 07:44:17;;;;;;;0.00;0.00;;;;;;;17.13;88.78;96563.50;5125604;27;20022;-68
2020/12/27 07:46:43;;;;;;;0.00;0.00;;;;;;;17.14;88.99;96581.63;5108633;27;20424;-68
2020/12/27 07:49:15;;;;;;;0.10;0.00;;;;;;;17.20;88.96;96596.59;5096486;28;20044;-68
2020/12/27 07:51:41;;;;;;;0.00;0.00;;;;;;;17.21;88.75;96595.38;5118043;27;20039;-68
2020/12/27 07:54:07;;;;;;;0.05;0.00;;;;;;;17.23;88.94;96604.06;5117148;27;20052;-68
2020/12/27 07:56:33;;;;;;;0.10;0.00;;;;;;;17.26;88.89;96608.78;5110085;27;20686;-67
2020/12/27 07:59:03;;;;;;;0.00;0.00;;;;;;;17.33;89.15;96607.16;5109748;27;20028;-66
2020/12/27 08:01:34;;;;;;;0.00;0.00;;;;;;;17.33;89.10;96602.41;5113839;27;20031;-66
2020/12/27 08:04:08;;;;;;;0.00;0.00;;;;;;;17.36;88.76;96587.00;5108860;27;20080;-66
2020/12/27 08:06:36;;;;;;;0.15;0.00;;;;;;;17.37;89.10;96583.84;5114795;27;20026;-67
2020/12/27 08:09:08;;;;;;;0.32;0.00;;;;;;;17.39;89.03;96580.69;5130200;27;20057;-68
2020/12/27 08:11:41;;;;;;;0.00;0.00;;;;;;;17.39;88.64;96555.81;5109800;27;20040;-68
2020/12/27 08:14:12;;;;;;;0.22;0.00;;;;;;;17.40;89.03;96533.31;5118501;27;20036;-67
2020/12/27 08:16:46;;;;;;;0.00;0.00;;;;;;;17.41;88.83;96551.47;5119663;27;20032;-68
2020/12/27 08:19:13;;;;;;;0.00;0.00;;;;;;;17.43;89.09;96556.59;5132202;27;20035;-68
2020/12/27 08:21:41;;;;;;;0.10;0.03;;;;;;;17.44;88.71;96563.69;5131379;27;20388;-68
2020/12/27 08:24:14;;;;;;;0.10;0.00;;;;;;;17.46;89.18;96547.50;5116667;27;20023;-68
2020/12/27 08:26:42;;;;;;;0.17;0.08;;;;;;;17.47;89.12;96543.53;5132566;27;20015;-68
2020/12/27 08:29:23;;;;;;;0.43;0.10;;;;;;;17.50;88.82;96545.50;5139835;27;20058;-67
2020/12/27 08:31:51;;;;;;;0.47;0.00;;;;;;;17.50;88.69;96553.00;5120491;27;20030;-68
2020/12/27 08:34:24;;;;;;;1.65;0.10;;;;;;;17.52;89.22;96559.69;5142501;27;20034;-69
2020/12/27 08:36:57;;;;;;;0.15;0.10;;;;;;;17.55;88.79;96561.66;5132195;27;20019;-68
2020/12/27 08:39:34;;;;;;;0.20;0.00;;;;;;;17.56;88.74;96563.19;5114189;27;20337;-68
2020/12/27 08:42:18;;;;;;;0.88;0.20;;;;;;;17.61;88.58;96573.81;5134487;27;20010;-68
2020/12/27 08:44:58;;;;;;;0.68;0.20;;;;;;;17.62;88.67;96575.41;5136013;27;20742;-68
2020/12/27 08:47:46;;;;;;;0.28;0.13;;;;;;;17.63;88.86;96587.22;5113658;27;20065;-68
2020/12/27 08:50:23;;;;;;;0.25;0.10;;;;;;;17.60;88.76;96605.38;5141373;27;20022;-75
2020/12/27 08:52:53;;;;;;;1.05;0.15;;;;;;;17.57;88.85;96600.69;5137426;27;20071;-75
2020/12/27 08:55:27;;;;;;;0.35;0.20;;;;;;;17.56;88.76;96588.06;5145191;27;20029;-75
2020/12/27 08:57:57;;;;;;;0.73;0.10;;;;;;;17.56;89.04;96593.56;5128245;27;20034;-68
2020/12/27 09:00:31;;;;;;;0.73;0.40;;;;;;;17.55;89.01;96596.75;5138271;27;20014;-69
2020/12/27 09:02:58;;;;;;;0.95;0.28;;;;;;;17.52;88.68;96598.38;5125419;27;20031;-69
2020/12/27 09:05:37;;;;;;;0.52;0.20;;;;;;;17.53;89.16;96599.13;5138486;27;20043;-69
2020/12/27 09:08:13;;;;;;;0.52;0.40;;;;;;;17.55;88.76;96600.31;5128951;27;20114;-67
2020/12/27 09:10:40;;;;;;;0.20;0.10;;;;;;;17.53;89.08;96582.56;5116038;27;20456;-68
2020/12/27 09:13:05;;;;;;;0.32;0.20;;;;;;;17.56;88.96;96593.56;5130403;27;20381;-68
2020/12/27 09:15:32;;;;;;;0.98;0.40;;;;;;;17.52;88.74;96581.78;5128424;27;20038;-67
2020/12/27 09:18:11;;;;;;;0.85;0.30;;;;;;;17.61;88.54;96592.38;5140361;27;20066;-67
2020/12/27 09:20:38;;;;;;;0.40;0.30;;;;;;;17.58;88.49;96596.72;5141726;27;20022;-69
2020/12/27 09:23:15;;;;;;;1.92;0.57;;;;;;;17.60;88.72;96605.38;5137713;27;21713;-68
2020/12/27 09:25:44;;;;;;;1.38;0.30;;;;;;;17.58;88.46;96596.72;5138191;27;20023;-66
2020/12/27 09:28:21;;;;;;;0.43;0.30;;;;;;;17.60;88.61;96593.56;5144901;27;20027;-68
2020/12/27 09:31:00;;;;;;;2.50;0.20;;;;;;;17.59;88.83;96603.81;5131695;27;20037;-68
2020/12/27 09:33:26;;;;;;;0.20;0.10;;;;;;;17.57;88.96;96608.97;5115803;27;20037;-67
2020/12/27 09:35:58;;;;;;;1.65;0.30;;;;;;;17.59;88.72;96603.81;5138884;27;20025;-68
2020/12/27 09:38:26;;;;;;;0.35;0.20;;;;;;;17.62;89.25;96604.97;5130618;27;20030;-68
2020/12/27 09:41:14;;;;;;;0.38;0.30;;;;;;;17.75;88.81;96599.75;5129773;27;20076;-69
2020/12/27 09:44:05;;;;;;;4.05;0.38;;;;;;;17.91;89.28;96599.25;5136653;27;20018;-66
2020/12/27 09:46:47;;;;;;;0.60;0.20;;;;;;;18.09;88.85;96599.91;5124155;27;20130;-69
2020/12/27 09:49:24;;;;;;;0.43;0.22;;;;;;;18.27;88.94;96602.47;5129913;27;20026;-69
2020/12/27 09:52:01;;;;;;;0.32;0.30;;;;;;;18.54;89.09;96593.50;5136775;27;20050;-67
2020/12/27 09:54:29;;;;;;;0.90;0.10;;;;;;;18.69;88.41;96590.56;5136792;27;20026;-69
2020/12/27 09:56:54;;;;;;;0.60;0.20;;;;;;;18.86;88.53;96591.56;5140194;27;20026;-69
2020/12/27 09:59:20;;;;;;;3.03;0.20;;;;;;;19.04;88.34;96591.34;5130070;27;20041;-70
2020/12/27 10:01:45;;;;;;;0.25;0.17;;;;;;;19.24;88.23;96581.19;5123377;27;20486;-67
2020/12/27 10:04:10;;;;;;;0.22;0.10;;;;;;;19.45;87.92;96580.09;5115163;27;20023;-69
2020/12/27 10:06:36;;;;;;;1.00;0.28;;;;;;;19.66;87.91;96592.81;5110755;27;20037;-67
2020/12/27 10:09:01;;;;;;;0.20;0.13;;;;;;;19.81;87.81;96581.53;5116273;27;20062;-68
2020/12/27 10:11:26;;;;;;;1.10;0.17;;;;;;;19.94;87.29;96596.38;5133646;27;20046;-67
2020/12/27 10:13:52;;;;;;;0.30;0.20;;;;;;;20.10;87.54;96597.69;5117181;27;20042;-68
2020/12/27 10:16:19;;;;;;;0.17;0.10;;;;;;;20.29;86.90;96588.63;5127293;27;20077;-67
2020/12/27 10:18:44;;;;;;;0.98;0.20;;;;;;;20.52;87.07;96584.25;5116928;27;20027;-71
2020/12/27 10:21:09;;;;;;;0.52;0.00;;;;;;;20.59;85.85;96584.13;5133679;27;20521;-69
2020/12/27 10:23:35;;;;;;;0.38;0.15;;;;;;;20.55;86.10;96584.19;5144701;27;20022;-69
2020/12/27 10:26:01;;;;;;;0.22;0.13;;;;;;;20.52;85.85;96585.03;5137315;27;20023;-71
2020/12/27 10:28:27;;;;;;;0.30;0.03;;;;;;;20.50;85.60;96593.00;5139483;27;20054;-70
2020/12/27 10:30:52;;;;;;;0.30;0.20;;;;;;;20.50;85.59;96583.88;5130782;27;20051;-70
2020/12/27 10:33:35;;;;;;;2.30;0.10;;;;;;;20.61;85.96;96578.91;5131802;27;20063;-72
2020/12/27 10:36:01;;;;;;;0.20;0.20;;;;;;;20.61;85.52;96570.59;5119547;27;20467;-69
2020/12/27 10:38:26;;;;;;;0.13;0.10;;;;;;;20.67;85.86;96576.44;5119861;27;20076;-66
2020/12/27 10:40:52;;;;;;;0.10;0.10;;;;;;;20.71;85.49;96586.28;5141329;27;20087;-69
2020/12/27 10:43:19;;;;;;;0.30;0.20;;;;;;;20.77;85.52;96583.00;5115653;27;20031;-69
2020/12/27 10:45:44;;;;;;;0.30;0.10;;;;;;;20.78;85.54;96590.91;5139509;27;20068;-68
2020/12/27 10:48:10;;;;;;;0.85;0.10;;;;;;;20.78;85.58;96567.91;5136111;27;20384;-68
2020/12/27 10:50:44;;;;;;;0.10;0.00;;;;;;;20.83;85.76;96567.41;5126617;27;20557;-70
2020/12/27 10:53:09;;;;;;;0.10;0.10;;;;;;;20.80;85.59;96571.81;5117323;27;20061;-71
2020/12/27 10:55:35;;;;;;;0.65;0.20;;;;;;;20.80;85.47;96554.38;5134683;27;20035;-69
2020/12/27 10:58:00;;;;;;;0.20;0.10;;;;;;;20.81;85.38;96553.16;5129975;27;20041;-68
2020/12/27 11:00:26;;;;;;;0.05;0.00;;;;;;;20.82;85.87;96558.31;5123605;27;20461;-69
2020/12/27 11:02:51;;;;;;;0.28;0.03;;;;;;;20.84;85.80;96558.66;5129552;27;20102;-70
2020/12/27 11:05:20;;;;;;;0.20;0.10;;;;;;;20.89;85.50;96557.34;5141988;27;20019;-69
2020/12/27 11:07:45;;;;;;;0.08;0.00;;;;;;;20.91;85.62;96557.72;5138373;27;20031;-71
2020/12/27 11:10:11;;;;;;;0.10;0.03;;;;;;;20.91;85.49;96554.94;5140806;27;20091;-70
2020/12/27 11:12:38;;;;;;;0.30;0.00;;;;;;;20.98;85.56;96563.09;5136088;27;20035;-70
2020/12/27 11:15:04;;;;;;;0.45;0.10;;;;;;;21.04;85.45;96557.81;5120906;27;20027;-70
2020/12/27 11:17:29;;;;;;;0.20;0.10;;;;;;;21.08;85.52;96564.91;5130980;27;20655;-70
2020/12/27 11:19:55;;;;;;;0.15;0.00;;;;;;;21.10;85.57;96559.69;5115961;27;20478;-69
2020/12/27 11:22:20;;;;;;;0.00;0.00;;;;;;;21.16;85.27;96551.63;5118584;27;20043;-68
2020/12/27 11:24:46;;;;;;;0.03;0.03;;;;;;;21.21;85.58;96550.31;5107610;27;20031;-69
2020/12/27 11:27:11;;;;;;;0.10;0.03;;;;;;;21.27;85.14;96554.16;5120174;27;20361;-69
2020/12/27 11:29:36;;;;;;;0.00;0.00;;;;;;;21.31;84.94;96554.09;5143928;27;20079;-69
2020/12/27 11:32:02;;;;;;;0.10;0.00;;;;;;;21.35;85.24;96555.56;5140055;27;20456;-68
2020/12/27 11:34:27;;;;;;;0.10;0.10;;;;;;;21.39;85.49;96545.16;5138806;27;20141;-71
2020/12/27 11:36:53;;;;;;;0.17;0.00;;;;;;;21.45;85.08;96540.63;5123132;27;20019;-71
2020/12/27 11:39:18;;;;;;;0.00;0.00;;;;;;;21.52;85.31;96536.91;5138436;27;20027;-71
2020/12/27 11:41:48;;;;;;;0.10;0.00;;;;;;;21.61;84.80;96533.53;5121460;27;20023;-71
2020/12/27 11:44:13;;;;;;;0.00;0.00;;;;;;;21.62;84.57;96535.09;5125105;27;20034;-69
2020/12/27 11:46:39;;;;;;;0.00;0.00;;;;;;;21.67;84.51;96526.25;5144687;27;20027;-72
2020/12/27 11:49:04;;;;;;;0.03;0.00;;;;;;;21.70;84.83;96519.81;5104211;27;20035;-70